»·PEaware :: N201TH KPDX-KSLE

N201TH :: KPDX-KSLE

FLIGHT INFORMATION

Flight Status: Arrived
Operator: Privately registered:
United States
More flights under this callsign
Pilot: Anonymous 26576 (26576)
Aircraft: CESSNA 172 SKYHAWK
(C172)
More flights by this aircraft type
Origin: KPDX Portland Intl
United States
Destination: KSLE McNary
United States
More flights between these airports :: More routes between these airports
Route: UBG
File this flight plan on PilotEdge
Remarks: +CW /
Altitude:
(Current/Filed)
3,000ft
Speed:
(Current/Filed)
105kts
Departed: 02-Jan-20 05:28 PM
Arrived: 02-Jan-20 06:16 PM
Distance/Time
Traveled:
44nm/0:48
Distance/Time
To Go:
Arrived

Flight Plot

Page will automatically refresh every two minutes.

Flight plan parsing failed; only flown route is shown


Map Options




Map Legend


Flown Route
Filed Route
Departure Airport
Arrival Airport
Navaid (VOR, NDB)
Fix

Horizontal Profiles

Position Reports

Time Latitude Longitude Heading Altitude Ground
Speed
02-Jan-20 17:07 45.587608 -122.584015 210 20ft 0kts
02-Jan-20 17:08 45.587608 -122.584015 210 20ft 0kts
02-Jan-20 17:09 45.587608 -122.584015 210 20ft 0kts
02-Jan-20 17:10 45.587608 -122.584015 210 20ft 0kts
02-Jan-20 17:11 45.587608 -122.584015 210 20ft 0kts
02-Jan-20 17:12 45.587608 -122.584015 210 20ft 0kts
02-Jan-20 17:13 45.587608 -122.584015 210 20ft 0kts
02-Jan-20 17:14 45.587608 -122.584015 210 20ft 0kts
02-Jan-20 17:15 45.587608 -122.584015 210 20ft 0kts
02-Jan-20 17:16 45.587608 -122.584015 210 20ft 0kts
02-Jan-20 17:17 45.587608 -122.584015 210 20ft 0kts
02-Jan-20 17:18 45.587608 -122.584015 210 20ft 0kts
02-Jan-20 17:19 45.587608 -122.584015 210 20ft 0kts
02-Jan-20 17:20 45.587706 -122.584041 30 20ft 0kts
02-Jan-20 17:21 45.590785 -122.588564 300 20ft 29kts
02-Jan-20 17:22 45.594471 -122.597532 36 23ft 4kts
02-Jan-20 17:23 45.594487 -122.597514 43 23ft 0kts
02-Jan-20 17:24 45.594487 -122.597514 43 23ft 0kts
02-Jan-20 17:25 45.594487 -122.597514 43 23ft 0kts
02-Jan-20 17:26 45.594605 -122.595160 117 23ft 21kts
02-Jan-20 17:27 45.583841 -122.568168 117 693ft 91kts
02-Jan-20 17:28 45.571767 -122.536981 119 1706ft 90kts
02-Jan-20 17:29 45.554287 -122.529417 237 2613ft 79kts
02-Jan-20 17:30 45.545219 -122.556783 271 3494ft 74kts
02-Jan-20 17:31 45.533440 -122.584378 233 4156ft 90kts
02-Jan-20 17:32 45.519261 -122.617644 235 4249ft 106kts
02-Jan-20 17:33 45.501190 -122.650320 247 4208ft 106kts
02-Jan-20 17:34 45.486813 -122.688342 238 4064ft 110kts
02-Jan-20 17:35 45.470558 -122.725061 253 3985ft 104kts
02-Jan-20 17:36 45.459321 -122.763703 244 3936ft 105kts
02-Jan-20 17:37 45.446129 -122.801205 246 3874ft 106kts
02-Jan-20 17:38 45.428656 -122.837136 230 4002ft 112kts
02-Jan-20 17:39 45.409968 -122.873463 243 4029ft 119kts
02-Jan-20 17:40 45.394398 -122.913688 240 4092ft 117kts
02-Jan-20 17:41 45.375102 -122.951260 234 4106ft 118kts
02-Jan-20 17:42 45.355543 -122.989318 242 3804ft 127kts
02-Jan-20 17:43 45.339778 -123.024353 245 3899ft 91kts
02-Jan-20 17:44 45.324918 -123.052993 215 3886ft 91kts
02-Jan-20 17:45 45.299343 -123.059582 201 3883ft 88kts
02-Jan-20 17:46 45.273507 -123.057775 166 3846ft 96kts
02-Jan-20 17:47 45.248830 -123.045141 162 3860ft 96kts
02-Jan-20 17:48 45.223187 -123.038495 172 3862ft 93kts
02-Jan-20 17:49 45.197566 -123.031042 175 3702ft 95kts
02-Jan-20 17:50 45.171451 -123.026063 176 3483ft 94kts
02-Jan-20 17:51 45.145140 -123.013338 157 3765ft 112kts
02-Jan-20 17:52 45.112428 -122.999654 167 3644ft 133kts
02-Jan-20 17:53 45.074912 -122.994402 176 3231ft 143kts
02-Jan-20 17:54 45.037578 -122.983249 174 3056ft 133kts
02-Jan-20 17:55 45.001320 -122.975791 166 3045ft 125kts
02-Jan-20 17:56 44.967415 -122.966923 176 3145ft 125kts
02-Jan-20 17:57 44.934136 -122.960264 179 3140ft 109kts
02-Jan-20 17:58 44.905123 -122.956738 185 2931ft 97kts
02-Jan-20 17:59 44.879389 -122.951683 173 2996ft 92kts
02-Jan-20 18:00 44.854496 -122.940639 159 3103ft 95kts
02-Jan-20 18:01 44.829998 -122.928292 160 3190ft 95kts
02-Jan-20 18:02 44.806795 -122.910112 149 3229ft 98kts
02-Jan-20 18:03 44.794724 -122.881112 33 3265ft 94kts
02-Jan-20 18:04 44.810708 -122.897972 300 3338ft 78kts
02-Jan-20 18:05 44.824972 -122.920869 305 3372ft 80kts
02-Jan-20 18:06 44.832559 -122.906937 157 3425ft 96kts
02-Jan-20 18:07 44.810204 -122.885782 152 3506ft 97kts
02-Jan-20 18:08 44.799727 -122.902964 328 3442ft 88kts
02-Jan-20 18:09 44.818188 -122.920534 319 3582ft 78kts
02-Jan-20 18:10 44.837498 -122.934992 315 3540ft 82kts
02-Jan-20 18:11 44.853633 -122.957184 316 3200ft 84kts
02-Jan-20 18:12 44.869577 -122.974036 306 2698ft 60kts
02-Jan-20 18:13 44.886772 -122.984310 332 1839ft 74kts
02-Jan-20 18:14 44.903058 -122.994670 316 763ft 66kts
02-Jan-20 18:15 44.914108 -123.005134 328 199ft 0kts

Navigation Log

Ident Type
Flight plan parsing failed, navigation log unavailable